Stamford, VT

8:49 PM EST on December 24, 2014 (GMT -0500)
Pittsfield Municipal | Change Station
CLOSE
Current Station
Airport
Location: Pittsfield,
Elevation: 1194 ft
Nearby Weather Stations
Active Advisory: Areal Flood Watch

Elev 1194 ft 42.43 °N, 73.29 °W | Updated 4 minutes ago

Overcast
Overcast
44 °F
Feels Like 42 °F
N
5
Wind Variable Wind from NNW

Today
High -- | Low -- °F
--% Chance of Precip.
Yesterday
High -- | Low -- °F
Precip. -- in
7:20 AM 4:22 PM
Waxing Crescent, 12% visible
Pressure 29.60 in
Visibility 1.8 miles
Clouds Overcast 200 ft
Windchill 42 °F
Dew Point 44 °F
Humidity 100%
Rainfall 0.32 in
Snow Depth Not available.
UV 0 out of 12
Pollen .10 out of 12
Air Quality Not available.
Flu Activity Not available.
SPECI KPSF 250145Z AUTO 34004KT 1 3/4SM BR OVC002 07/07 A2960 RMK AO2 RAE14 P0001 T00670067

More Conditions Fewer Conditions

Pressure 29.60 in
Visibility 1.8 miles
Clouds Overcast 200 ft
Windchill 42 °F
Dew Point 44 °F
Humidity 100%
Rainfall 0.32 in
Snow Depth Not available.
UV 0 out of 12
Pollen .10 out of 12
Air Quality Not available.
Flu Activity Not available.
SPECI KPSF 250145Z AUTO 34004KT 1 3/4SM BR OVC002 07/07 A2960 RMK AO2 RAE14 P0001 T00670067

More Conditions Fewer Conditions

10-Day Weather Forecast

Almanac

Astronomy

Dec. 24, 2014 Rise Set
Actual Time
Civil Twilight
Nautical Twilight
Astronomical Twilight
Moon
Length of Visible Light
Length of Day
Tomorrow will be .
, % of the Moon is Illuminated

Today's Extremes

State Highs State Lows

Community

WunderPhotos

Upload Photos

1,780,208 photos uploaded!

WunderBlogs® & News

Nearby

Air Quality

  Air Quality AQ Index Pollutant
Not available.

Snow Depth

Station Depth Elevation

Earthquake Activity

City Distance Mag. Time & Date
Minimum magnitude displayed is 2.5.

Coastal Water Temperatures

Place Temperature

Nearby Weather Stations